sensor_id;sensor_type;location;lat;lon;timestamp;pressure;altitude;pressure_sealevel;temperature;humidity
26697;BME280;14312;52.614;13.496;2022-11-27T12:05:14;102048.66;;;12.07;79.94
26697;BME280;14312;52.614;13.496;2022-11-27T12:11:11;102039.09;;;13.54;75.87
26697;BME280;14312;52.614;13.496;2022-11-27T12:20:26;102017.00;;;15.35;69.14
26697;BME280;14312;52.614;13.496;2022-11-27T12:23:17;102011.97;;;15.78;66.69
26697;BME280;14312;52.614;13.496;2022-11-27T12:26:21;102000.50;;;16.11;61.79
26697;BME280;14312;52.614;13.496;2022-11-27T12:47:37;101958.34;;;16.17;65.54
26697;BME280;14312;52.614;13.496;2022-11-27T12:50:37;101956.13;;;16.64;62.56
26697;BME280;14312;52.614;13.496;2022-11-27T12:53:42;101948.34;;;16.84;60.80
26697;BME280;14312;52.614;13.496;2022-11-27T12:56:40;101944.84;;;16.83;58.75
26697;BME280;14312;52.614;13.496;2022-11-27T12:59:38;101937.03;;;16.82;58.32
26697;BME280;14312;52.614;13.496;2022-11-27T13:02:35;101940.44;;;16.77;57.63
26697;BME280;14312;52.614;13.496;2022-11-27T13:05:29;101941.06;;;16.84;57.86
26697;BME280;14312;52.614;13.496;2022-11-27T13:08:26;101941.53;;;16.98;57.88
26697;BME280;14312;52.614;13.496;2022-11-27T13:11:16;101937.72;;;17.16;59.29
26697;BME280;14312;52.614;13.496;2022-11-27T13:14:13;101929.41;;;17.44;59.09
26697;BME280;14312;52.614;13.496;2022-11-27T13:17:03;101925.16;;;17.75;59.35
26697;BME280;14312;52.614;13.496;2022-11-27T13:19:50;101914.91;;;18.04;58.90
26697;BME280;14312;52.614;13.496;2022-11-27T13:22:37;101916.38;;;18.27;56.42
26697;BME280;14312;52.614;13.496;2022-11-27T13:25:23;101906.47;;;18.32;54.76
26697;BME280;14312;52.614;13.496;2022-11-27T13:28:41;101896.66;;;18.21;55.19
26697;BME280;14312;52.614;13.496;2022-11-27T13:31:30;101897.53;;;17.90;51.79
26697;BME280;14312;52.614;13.496;2022-11-27T13:34:19;101892.78;;;17.48;52.05
26697;BME280;14312;52.614;13.496;2022-11-27T13:37:07;101899.88;;;17.06;53.31
26697;BME280;14312;52.614;13.496;2022-11-27T13:40:05;101904.75;;;16.65;54.23
26697;BME280;14312;52.614;13.496;2022-11-27T13:42:55;101894.28;;;16.30;55.09
26697;BME280;14312;52.614;13.496;2022-11-27T13:45:44;101894.06;;;15.98;55.24
26697;BME280;14312;52.614;13.496;2022-11-27T13:48:36;101885.16;;;15.64;55.03
26697;BME280;14312;52.614;13.496;2022-11-27T13:51:30;101886.50;;;15.22;55.35
26697;BME280;14312;52.614;13.496;2022-11-27T13:54:18;101877.06;;;14.79;55.99
26697;BME280;14312;52.614;13.496;2022-11-27T13:57:14;101878.50;;;14.35;56.81
26697;BME280;14312;52.614;13.496;2022-11-27T14:02:50;101879.34;;;13.59;58.23
26697;BME280;14312;52.614;13.496;2022-11-27T14:05:41;101872.03;;;13.25;59.02
26697;BME280;14312;52.614;13.496;2022-11-27T14:08:33;101864.16;;;12.93;59.70
26697;BME280;14312;52.614;13.496;2022-11-27T14:14:24;101866.84;;;12.39;61.02
26697;BME280;14312;52.614;13.496;2022-11-27T14:17:39;101867.50;;;12.16;61.54
26697;BME280;14312;52.614;13.496;2022-11-27T14:20:28;101868.13;;;11.93;62.38
26697;BME280;14312;52.614;13.496;2022-11-27T14:26:23;101868.72;;;11.64;63.25
26697;BME280;14312;52.614;13.496;2022-11-27T14:29:10;101862.38;;;11.58;64.04
26697;BME280;14312;52.614;13.496;2022-11-27T14:31:59;101864.25;;;11.58;64.12
26697;BME280;14312;52.614;13.496;2022-11-27T14:34:46;101857.69;;;11.54;63.77
26697;BME280;14312;52.614;13.496;2022-11-27T14:37:35;101871.31;;;11.46;63.67
26697;BME280;14312;52.614;13.496;2022-11-27T14:40:24;101859.88;;;11.32;63.78
26697;BME280;14312;52.614;13.496;2022-11-27T14:43:15;101857.50;;;11.17;63.88
26697;BME280;14312;52.614;13.496;2022-11-27T14:46:03;101862.53;;;11.01;63.90
26697;BME280;14312;52.614;13.496;2022-11-27T14:48:54;101862.59;;;10.81;64.33
26697;BME280;14312;52.614;13.496;2022-11-27T14:51:40;101862.66;;;10.68;64.71
26697;BME280;14312;52.614;13.496;2022-11-27T14:54:31;101867.19;;;10.54;64.92
26697;BME280;14312;52.614;13.496;2022-11-27T14:57:22;101870.09;;;10.39;64.98
26697;BME280;14312;52.614;13.496;2022-11-27T15:03:07;101864.78;;;10.13;65.23
26697;BME280;14312;52.614;13.496;2022-11-27T15:05:58;101857.84;;;9.99;65.59
26697;BME280;14312;52.614;13.496;2022-11-27T15:08:45;101857.84;;;9.86;65.83
26697;BME280;14312;52.614;13.496;2022-11-27T15:11:32;101861.53;;;9.71;65.75
26697;BME280;14312;52.614;13.496;2022-11-27T15:14:17;101843.91;;;9.57;66.23
26697;BME280;14312;52.614;13.496;2022-11-27T15:17:14;101847.16;;;9.46;66.33
26697;BME280;14312;52.614;13.496;2022-11-27T15:20:03;101845.09;;;9.35;66.51
26697;BME280;14312;52.614;13.496;2022-11-27T15:22:57;101837.69;;;9.24;66.68
26697;BME280;14312;52.614;13.496;2022-11-27T15:25:50;101838.09;;;9.14;66.74
26697;BME280;14312;52.614;13.496;2022-11-27T15:31:36;101829.00;;;8.95;67.22
26697;BME280;14312;52.614;13.496;2022-11-27T15:34:22;101826.56;;;8.87;67.36
26697;BME280;14312;52.614;13.496;2022-11-27T15:37:28;101822.84;;;8.82;67.63
26697;BME280;14312;52.614;13.496;2022-11-27T15:40:25;101818.50;;;8.74;67.83
26697;BME280;14312;52.614;13.496;2022-11-27T15:43:13;101819.94;;;8.70;68.23
26697;BME280;14312;52.614;13.496;2022-11-27T15:46:04;101820.31;;;8.67;68.29
26697;BME280;14312;52.614;13.496;2022-11-27T15:48:50;101817.25;;;8.63;68.55
26697;BME280;14312;52.614;13.496;2022-11-27T15:51:38;101823.78;;;8.61;68.79
26697;BME280;14312;52.614;13.496;2022-11-27T15:54:24;101822.94;;;8.60;68.65
26697;BME280;14312;52.614;13.496;2022-11-27T15:57:11;101813.38;;;8.59;68.97
26697;BME280;14312;52.614;13.496;2022-11-27T15:59:57;101813.56;;;8.58;68.94
26697;BME280;14312;52.614;13.496;2022-11-27T16:02:43;101810.28;;;8.56;68.98
26697;BME280;14312;52.614;13.496;2022-11-27T16:05:35;101806.78;;;8.55;69.21
26697;BME280;14312;52.614;13.496;2022-11-27T16:08:20;101808.00;;;8.53;68.90
26697;BME280;14312;52.614;13.496;2022-11-27T16:11:09;101795.75;;;8.52;69.35
26697;BME280;14312;52.614;13.496;2022-11-27T16:13:58;101789.63;;;8.51;69.31
26697;BME280;14312;52.614;13.496;2022-11-27T16:16:44;101781.22;;;8.48;69.27
26697;BME280;14312;52.614;13.496;2022-11-27T16:19:30;101782.22;;;8.47;69.39
26697;BME280;14312;52.614;13.496;2022-11-27T16:22:16;101782.22;;;8.47;69.47
26697;BME280;14312;52.614;13.496;2022-11-27T16:25:03;101786.13;;;8.44;69.61
26697;BME280;14312;52.614;13.496;2022-11-27T16:27:49;101777.31;;;8.44;69.58
26697;BME280;14312;52.614;13.496;2022-11-27T16:30:35;101784.28;;;8.45;69.98
26697;BME280;14312;52.614;13.496;2022-11-27T16:33:24;101775.69;;;8.43;69.62
26697;BME280;14312;52.614;13.496;2022-11-27T16:36:13;101779.78;;;8.45;69.70
26697;BME280;14312;52.614;13.496;2022-11-27T16:38:59;101770.38;;;8.43;70.10
26697;BME280;14312;52.614;13.496;2022-11-27T16:41:46;101776.31;;;8.45;70.04
26697;BME280;14312;52.614;13.496;2022-11-27T16:44:32;101769.16;;;8.45;69.96
26697;BME280;14312;52.614;13.496;2022-11-27T16:47:18;101758.75;;;8.44;70.03
26697;BME280;14312;52.614;13.496;2022-11-27T16:50:05;101755.91;;;8.45;70.22
26697;BME280;14312;52.614;13.496;2022-11-27T16:52:51;101754.03;;;8.46;69.75
26697;BME280;14312;52.614;13.496;2022-11-27T16:55:36;101753.00;;;8.47;69.91
26697;BME280;14312;52.614;13.496;2022-11-27T16:58:25;101755.06;;;8.45;70.00
26697;BME280;14312;52.614;13.496;2022-11-27T17:01:13;101757.72;;;8.45;70.30
26697;BME280;14312;52.614;13.496;2022-11-27T17:04:04;101751.78;;;8.43;70.04
26697;BME280;14312;52.614;13.496;2022-11-27T17:06:56;101752.78;;;8.42;70.10
26697;BME280;14312;52.614;13.496;2022-11-27T17:09:42;101749.50;;;8.40;69.98
26697;BME280;14312;52.614;13.496;2022-11-27T17:12:28;101740.94;;;8.38;70.31
26697;BME280;14312;52.614;13.496;2022-11-27T17:15:14;101745.63;;;8.36;70.47
26697;BME280;14312;52.614;13.496;2022-11-27T17:17:59;101737.66;;;8.36;70.46
26697;BME280;14312;52.614;13.496;2022-11-27T17:20:45;101747.47;;;8.35;70.58
26697;BME280;14312;52.614;13.496;2022-11-27T17:23:33;101741.31;;;8.35;70.55
26697;BME280;14312;52.614;13.496;2022-11-27T17:26:20;101739.69;;;8.34;70.83
26697;BME280;14312;52.614;13.496;2022-11-27T17:29:09;101734.56;;;8.32;70.47
26697;BME280;14312;52.614;13.496;2022-11-27T17:31:55;101732.72;;;8.33;70.61
26697;BME280;14312;52.614;13.496;2022-11-27T17:34:40;101727.41;;;8.33;70.62
26697;BME280;14312;52.614;13.496;2022-11-27T17:37:26;101715.16;;;8.32;70.86
26697;BME280;14312;52.614;13.496;2022-11-27T17:40:15;101713.53;;;8.31;70.99
26697;BME280;14312;52.614;13.496;2022-11-27T17:43:00;101709.06;;;8.31;70.99
26697;BME280;14312;52.614;13.496;2022-11-27T17:45:46;101702.91;;;8.31;70.84
26697;BME280;14312;52.614;13.496;2022-11-27T17:48:32;101696.75;;;8.30;70.92
26697;BME280;14312;52.614;13.496;2022-11-27T17:51:18;101697.59;;;8.31;70.54
26697;BME280;14312;52.614;13.496;2022-11-27T17:54:04;101705.56;;;8.31;70.69
26697;BME280;14312;52.614;13.496;2022-11-27T17:56:51;101694.28;;;8.29;70.70
26697;BME280;14312;52.614;13.496;2022-11-27T17:59:37;101695.13;;;8.29;70.72
26697;BME280;14312;52.614;13.496;2022-11-27T18:02:23;101692.66;;;8.27;70.97
26697;BME280;14312;52.614;13.496;2022-11-27T18:05:09;101694.47;;;8.27;71.00
26697;BME280;14312;52.614;13.496;2022-11-27T18:07:55;101680.38;;;8.26;70.94
26697;BME280;14312;52.614;13.496;2022-11-27T18:10:41;101675.06;;;8.26;71.17
26697;BME280;14312;52.614;13.496;2022-11-27T18:13:27;101673.06;;;8.29;70.99
26697;BME280;14312;52.614;13.496;2022-11-27T18:16:22;101666.09;;;8.27;71.37
26697;BME280;14312;52.614;13.496;2022-11-27T18:19:10;101659.97;;;8.27;71.55
26697;BME280;14312;52.614;13.496;2022-11-27T18:22:03;101655.66;;;8.26;71.17
26697;BME280;14312;52.614;13.496;2022-11-27T18:24:49;101647.31;;;8.29;71.38
26697;BME280;14312;52.614;13.496;2022-11-27T18:27:34;101647.31;;;8.29;71.25
26697;BME280;14312;52.614;13.496;2022-11-27T18:30:20;101645.50;;;8.30;71.32
26697;BME280;14312;52.614;13.496;2022-11-27T18:33:07;101645.50;;;8.30;71.23
26697;BME280;14312;52.614;13.496;2022-11-27T18:35:52;101647.31;;;8.29;71.43
26697;BME280;14312;52.614;13.496;2022-11-27T18:38:40;101647.97;;;8.31;71.52
26697;BME280;14312;52.614;13.496;2022-11-27T18:41:27;101644.50;;;8.31;71.62
26697;BME280;14312;52.614;13.496;2022-11-27T18:44:13;101646.13;;;8.32;71.61
26697;BME280;14312;52.614;13.496;2022-11-27T18:46:59;101648.78;;;8.32;71.48
26697;BME280;14312;52.614;13.496;2022-11-27T18:49:46;101659.19;;;8.33;71.65
26697;BME280;14312;52.614;13.496;2022-11-27T18:52:36;101657.56;;;8.32;71.71
26697;BME280;14312;52.614;13.496;2022-11-27T18:55:22;101659.59;;;8.30;71.91
26697;BME280;14312;52.614;13.496;2022-11-27T18:58:08;101646.50;;;8.29;71.59
26697;BME280;14312;52.614;13.496;2022-11-27T19:00:54;101656.09;;;8.30;71.63
26697;BME280;14312;52.614;13.496;2022-11-27T19:03:42;101652.81;;;8.27;71.73
26697;BME280;14312;52.614;13.496;2022-11-27T19:06:28;101646.88;;;8.25;71.48
26697;BME280;14312;52.614;13.496;2022-11-27T19:09:14;101654.25;;;8.23;71.71
26697;BME280;14312;52.614;13.496;2022-11-27T19:12:00;101658.31;;;8.19;71.53
26697;BME280;14312;52.614;13.496;2022-11-27T19:14:46;101649.72;;;8.17;71.32
26697;BME280;14312;52.614;13.496;2022-11-27T19:17:34;101650.94;;;8.15;71.78
26697;BME280;14312;52.614;13.496;2022-11-27T19:20:20;101643.56;;;8.10;71.41
26697;BME280;14312;52.614;13.496;2022-11-27T19:23:06;101649.28;;;8.07;71.47
26697;BME280;14312;52.614;13.496;2022-11-27T19:25:51;101644.34;;;8.04;71.70
26697;BME280;14312;52.614;13.496;2022-11-27T19:28:37;101639.47;;;8.01;71.82
26697;BME280;14312;52.614;13.496;2022-11-27T19:31:24;101638.84;;;7.99;71.62
26697;BME280;14312;52.614;13.496;2022-11-27T19:34:11;101640.66;;;7.99;71.68
26697;BME280;14312;52.614;13.496;2022-11-27T19:36:58;101641.88;;;7.96;71.89
26697;BME280;14312;52.614;13.496;2022-11-27T19:39:48;101636.56;;;7.96;71.94
26697;BME280;14312;52.614;13.496;2022-11-27T19:42:36;101629.66;;;7.95;72.00
26697;BME280;14312;52.614;13.496;2022-11-27T19:45:24;101621.88;;;7.94;71.84
26697;BME280;14312;52.614;13.496;2022-11-27T19:48:10;101617.38;;;7.94;71.85
26697;BME280;14312;52.614;13.496;2022-11-27T19:51:00;101613.72;;;7.95;71.82
26697;BME280;14312;52.614;13.496;2022-11-27T19:53:46;101605.13;;;7.93;72.12
26697;BME280;14312;52.614;13.496;2022-11-27T19:56:32;101607.78;;;7.93;71.88
26697;BME280;14312;52.614;13.496;2022-11-27T19:59:24;101606.78;;;7.94;72.01
26697;BME280;14312;52.614;13.496;2022-11-27T20:02:12;101608.41;;;7.95;72.19
26697;BME280;14312;52.614;13.496;2022-11-27T20:04:58;101608.41;;;7.95;72.19
26697;BME280;14312;52.614;13.496;2022-11-27T20:07:45;101608.00;;;7.98;72.07
26697;BME280;14312;52.614;13.496;2022-11-27T20:10:31;101604.34;;;7.99;72.11
26697;BME280;14312;52.614;13.496;2022-11-27T20:13:16;101605.97;;;8.00;72.03
26697;BME280;14312;52.614;13.496;2022-11-27T20:16:07;101611.91;;;8.02;71.96
26697;BME280;14312;52.614;13.496;2022-11-27T20:18:53;101604.53;;;8.04;72.03
26697;BME280;14312;52.614;13.496;2022-11-27T20:21:43;101607.19;;;8.04;72.43
26697;BME280;14312;52.614;13.496;2022-11-27T20:24:29;101600.25;;;8.03;72.15
26697;BME280;14312;52.614;13.496;2022-11-27T20:27:15;101595.56;;;8.05;72.28
26697;BME280;14312;52.614;13.496;2022-11-27T20:30:01;101597.84;;;8.08;72.05
26697;BME280;14312;52.614;13.496;2022-11-27T20:32:47;101610.09;;;8.09;72.20
26697;BME280;14312;52.614;13.496;2022-11-27T20:35:34;101607.44;;;8.09;72.01
26697;BME280;14312;52.614;13.496;2022-11-27T20:38:20;101602.72;;;8.11;72.06
26697;BME280;14312;52.614;13.496;2022-11-27T20:41:08;101602.72;;;8.11;72.06
26697;BME280;14312;52.614;13.496;2022-11-27T20:44:01;101604.38;;;8.12;71.96
26697;BME280;14312;52.614;13.496;2022-11-27T20:46:49;101599.69;;;8.14;72.11
26697;BME280;14312;52.614;13.496;2022-11-27T20:49:35;101609.28;;;8.15;71.95
26697;BME280;14312;52.614;13.496;2022-11-27T20:52:24;101608.47;;;8.15;72.01
26697;BME280;14312;52.614;13.496;2022-11-27T20:55:10;101598.69;;;8.15;72.09
26697;BME280;14312;52.614;13.496;2022-11-27T20:57:56;101597.84;;;8.15;72.03
26697;BME280;14312;52.614;13.496;2022-11-27T21:00:42;101597.03;;;8.14;71.74
26697;BME280;14312;52.614;13.496;2022-11-27T21:03:28;101590.91;;;8.14;71.85
26697;BME280;14312;52.614;13.496;2022-11-27T21:06:22;101585.59;;;8.14;71.89
26697;BME280;14312;52.614;13.496;2022-11-27T21:09:08;101583.97;;;8.13;71.64
26697;BME280;14312;52.614;13.496;2022-11-27T21:11:55;101576.19;;;8.11;71.94
26697;BME280;14312;52.614;13.496;2022-11-27T21:14:42;101571.69;;;8.12;71.56
26697;BME280;14312;52.614;13.496;2022-11-27T21:17:28;101558.63;;;8.10;71.56
26697;BME280;14312;52.614;13.496;2022-11-27T21:20:14;101550.66;;;8.10;71.94
26697;BME280;14312;52.614;13.496;2022-11-27T21:23:02;101534.13;;;8.08;71.97
26697;BME280;14312;52.614;13.496;2022-11-27T21:25:49;101539.44;;;8.08;71.83
26697;BME280;14312;52.614;13.496;2022-11-27T21:28:35;101537.00;;;8.07;71.91
26697;BME280;14312;52.614;13.496;2022-11-27T21:31:23;101530.03;;;8.06;71.70
26697;BME280;14312;52.614;13.496;2022-11-27T21:34:10;101528.19;;;8.06;71.94
26697;BME280;14312;52.614;13.496;2022-11-27T21:36:58;101525.94;;;8.03;71.44
26697;BME280;14312;52.614;13.496;2022-11-27T21:39:43;101528.59;;;8.03;71.50
26697;BME280;14312;52.614;13.496;2022-11-27T21:42:32;101528.81;;;8.02;71.60
26697;BME280;14312;52.614;13.496;2022-11-27T21:45:18;101531.66;;;8.00;71.82
26697;BME280;14312;52.614;13.496;2022-11-27T21:48:03;101530.03;;;7.99;71.53
26697;BME280;14312;52.614;13.496;2022-11-27T21:50:50;101520.41;;;7.98;71.85
26697;BME280;14312;52.614;13.496;2022-11-27T21:53:35;101523.06;;;7.98;71.64
26697;BME280;14312;52.614;13.496;2022-11-27T21:56:23;101516.13;;;7.97;71.83
26697;BME280;14312;52.614;13.496;2022-11-27T21:59:14;101519.00;;;7.96;71.52
26697;BME280;14312;52.614;13.496;2022-11-27T22:02:00;101513.91;;;7.94;71.72
26697;BME280;14312;52.614;13.496;2022-11-27T22:04:51;101517.75;;;7.92;71.65
26697;BME280;14312;52.614;13.496;2022-11-27T22:07:38;101521.41;;;7.91;71.71
26697;BME280;14312;52.614;13.496;2022-11-27T22:10:24;101525.09;;;7.90;71.66
26697;BME280;14312;52.614;13.496;2022-11-27T22:13:10;101530.63;;;7.88;71.85
26697;BME280;14312;52.614;13.496;2022-11-27T22:15:56;101529.19;;;7.85;71.69
26697;BME280;14312;52.614;13.496;2022-11-27T22:18:44;101523.03;;;7.85;71.58
26697;BME280;14312;52.614;13.496;2022-11-27T22:21:32;101519.78;;;7.83;71.74
26697;BME280;14312;52.614;13.496;2022-11-27T22:24:18;101519.16;;;7.81;71.59
26697;BME280;14312;52.614;13.496;2022-11-27T22:27:04;101519.56;;;7.78;71.64
26697;BME280;14312;52.614;13.496;2022-11-27T22:29:50;101524.88;;;7.78;71.63
26697;BME280;14312;52.614;13.496;2022-11-27T22:32:36;101519.94;;;7.75;71.66
26697;BME280;14312;52.614;13.496;2022-11-27T22:35:24;101509.56;;;7.73;71.73
26697;BME280;14312;52.614;13.496;2022-11-27T22:38:10;101523.00;;;7.72;71.62
26697;BME280;14312;52.614;13.496;2022-11-27T22:40:57;101509.13;;;7.70;71.64
26697;BME280;14312;52.614;13.496;2022-11-27T22:43:43;101509.53;;;7.67;71.63
26697;BME280;14312;52.614;13.496;2022-11-27T22:46:33;101505.25;;;7.66;71.99
26697;BME280;14312;52.614;13.496;2022-11-27T22:49:26;101513.19;;;7.66;71.59
26697;BME280;14312;52.614;13.496;2022-11-27T22:52:11;101507.25;;;7.64;71.77
26697;BME280;14312;52.614;13.496;2022-11-27T22:54:58;101516.03;;;7.64;71.80
26697;BME280;14312;52.614;13.496;2022-11-27T22:57:44;101504.63;;;7.64;71.97
26697;BME280;14312;52.614;13.496;2022-11-27T23:00:30;101510.75;;;7.64;71.95
26697;BME280;14312;52.614;13.496;2022-11-27T23:03:16;101503.78;;;7.63;72.00
26697;BME280;14312;52.614;13.496;2022-11-27T23:06:02;101504.63;;;7.64;71.97
26697;BME280;14312;52.614;13.496;2022-11-27T23:08:50;101498.50;;;7.63;72.02
26697;BME280;14312;52.614;13.496;2022-11-27T23:11:36;101491.53;;;7.62;71.76
26697;BME280;14312;52.614;13.496;2022-11-27T23:14:23;101485.41;;;7.62;71.85
26697;BME280;14312;52.614;13.496;2022-11-27T23:17:09;101491.53;;;7.62;72.06
26697;BME280;14312;52.614;13.496;2022-11-27T23:19:55;101485.41;;;7.62;72.25
26697;BME280;14312;52.614;13.496;2022-11-27T23:22:41;101489.91;;;7.61;72.15
26697;BME280;14312;52.614;13.496;2022-11-27T23:25:27;101482.19;;;7.60;71.73
26697;BME280;14312;52.614;13.496;2022-11-27T23:28:19;101474.41;;;7.58;71.86
26697;BME280;14312;52.614;13.496;2022-11-27T23:31:08;101478.91;;;7.58;71.68
26697;BME280;14312;52.614;13.496;2022-11-27T23:33:55;101473.97;;;7.55;71.65
26697;BME280;14312;52.614;13.496;2022-11-27T23:36:41;101467.84;;;7.54;71.53
26697;BME280;14312;52.614;13.496;2022-11-27T23:39:27;101468.25;;;7.51;71.78
26697;BME280;14312;52.614;13.496;2022-11-27T23:42:17;101473.56;;;7.51;72.04
26697;BME280;14312;52.614;13.496;2022-11-27T23:45:03;101469.28;;;7.50;72.00
26697;BME280;14312;52.614;13.496;2022-11-27T23:47:49;101465.81;;;7.50;71.88
26697;BME280;14312;52.614;13.496;2022-11-27T23:50:41;101459.88;;;7.47;71.67
26697;BME280;14312;52.614;13.496;2022-11-27T23:53:27;101466.19;;;7.46;71.69
26697;BME280;14312;52.614;13.496;2022-11-27T23:56:22;101462.94;;;7.44;72.17
26697;BME280;14312;52.614;13.496;2022-11-27T23:59:08;101462.13;;;7.44;71.74
